createdAt,value
2022-11-06T00:00:03.972Z,31.52
2022-11-06T00:02:31.327Z,32.28
2022-11-06T00:05:19.531Z,31.02
2022-11-06T00:07:48.456Z,32.13
2022-11-06T00:10:24.337Z,33.72
2022-11-06T00:12:52.176Z,32.53
2022-11-06T00:15:21.210Z,32.55
2022-11-06T00:18:02.860Z,31.10
2022-11-06T00:20:30.251Z,33.15
2022-11-06T00:23:46.025Z,31.67
2022-11-06T00:26:17.924Z,31.77
2022-11-06T00:28:45.626Z,31.38
2022-11-06T00:31:15.379Z,31.80
2022-11-06T00:33:43.063Z,35.35
2022-11-06T00:36:18.208Z,31.42
2022-11-06T00:38:45.888Z,31.77
2022-11-06T00:41:16.944Z,29.83
2022-11-06T00:43:59.457Z,33.03
2022-11-06T00:46:28.421Z,30.58
2022-11-06T00:48:56.833Z,30.52
2022-11-06T00:51:36.253Z,30.83
2022-11-06T00:54:05.751Z,30.92
2022-11-06T00:56:33.857Z,31.10
2022-11-06T00:59:04.354Z,29.92
2022-11-06T01:01:35.305Z,30.55
2022-11-06T01:04:11.885Z,29.70
2022-11-06T01:06:44.648Z,30.83
2022-11-06T01:09:15.936Z,30.65
2022-11-06T01:14:36.230Z,33.78
2022-11-06T01:17:03.542Z,31.27
2022-11-06T01:19:30.300Z,33.97
2022-11-06T01:21:57.387Z,30.20
2022-11-06T01:24:27.163Z,30.52
2022-11-06T01:29:45.991Z,30.73
2022-11-06T01:32:13.502Z,29.83
2022-11-06T01:34:40.250Z,30.80
2022-11-06T01:37:13.194Z,32.25
2022-11-06T01:39:43.426Z,32.33
2022-11-06T01:42:21.651Z,33.22
2022-11-06T01:45:21.725Z,31.20
2022-11-06T01:47:49.669Z,31.05
2022-11-06T01:50:17.297Z,33.70
2022-11-06T01:52:47.803Z,33.85
2022-11-06T01:55:22.752Z,33.10
2022-11-06T01:57:49.919Z,34.28
2022-11-06T02:00:17.879Z,34.17
2022-11-06T02:02:45.625Z,36.25
2022-11-06T02:05:12.581Z,36.65
2022-11-06T02:07:40.939Z,37.40
2022-11-06T02:10:09.555Z,32.92
2022-11-06T02:12:50.939Z,33.80
2022-11-06T02:15:45.765Z,37.78
2022-11-06T02:18:43.318Z,34.03
2022-11-06T02:21:27.473Z,35.88
2022-11-06T02:24:04.615Z,36.95
2022-11-06T02:27:07.781Z,35.38
2022-11-06T02:29:59.034Z,41.90
2022-11-06T02:32:40.760Z,38.20
2022-11-06T02:35:20.633Z,39.03
2022-11-06T02:37:49.000Z,36.70
2022-11-06T02:40:16.982Z,38.58
2022-11-06T02:42:49.538Z,38.63
2022-11-06T02:45:20.201Z,39.50
2022-11-06T02:47:51.132Z,36.63
2022-11-06T02:50:29.445Z,34.92
2022-11-06T02:53:06.525Z,35.00
2022-11-06T02:55:44.407Z,35.60
2022-11-06T02:58:39.235Z,39.05
2022-11-06T03:01:20.280Z,34.53
2022-11-06T03:03:52.008Z,38.63
2022-11-06T03:06:30.099Z,36.28
2022-11-06T03:09:03.695Z,33.08
2022-11-06T03:11:36.024Z,33.08
2022-11-06T03:14:08.881Z,32.08
2022-11-06T03:17:02.405Z,31.88
2022-11-06T03:19:43.665Z,39.88
2022-11-06T03:22:29.147Z,33.78
2022-11-06T03:25:10.036Z,30.98
2022-11-06T03:28:08.204Z,39.15
2022-11-06T03:30:43.398Z,29.05
2022-11-06T03:33:29.204Z,30.98
2022-11-06T03:36:14.205Z,31.42
2022-11-06T03:38:48.649Z,28.38
2022-11-06T03:41:22.419Z,34.08
2022-11-06T03:43:53.370Z,32.63
2022-11-06T03:46:26.668Z,31.67
2022-11-06T03:48:58.616Z,33.13
2022-11-06T03:51:50.948Z,34.08
2022-11-06T03:54:23.595Z,31.13
2022-11-06T03:56:59.155Z,27.95
2022-11-06T03:59:34.659Z,27.92
2022-11-06T04:02:05.207Z,33.90
2022-11-06T04:04:52.320Z,28.58
2022-11-06T04:07:29.152Z,30.25
2022-11-06T04:10:22.184Z,30.65
2022-11-06T04:13:09.405Z,31.27
2022-11-06T04:15:44.792Z,27.83
2022-11-06T04:18:17.958Z,30.00
2022-11-06T04:21:16.841Z,30.52
2022-11-06T04:24:35.814Z,29.00
2022-11-06T04:27:13.893Z,28.63
2022-11-06T04:30:06.485Z,30.77
2022-11-06T04:33:13.618Z,31.52
2022-11-06T04:35:43.388Z,31.15
2022-11-06T04:38:36.494Z,29.08
2022-11-06T04:41:45.640Z,28.17
2022-11-06T04:44:22.616Z,29.20
2022-11-06T04:46:54.934Z,25.95
2022-11-06T04:49:25.136Z,29.60
2022-11-06T04:51:52.803Z,30.48
2022-11-06T04:54:22.520Z,29.30
2022-11-06T04:56:50.735Z,28.73
2022-11-06T04:59:20.111Z,29.02
2022-11-06T05:01:49.119Z,27.50
2022-11-06T05:04:16.588Z,28.10
2022-11-06T05:06:45.548Z,27.05
2022-11-06T05:09:12.770Z,28.95
2022-11-06T05:11:40.964Z,27.45
2022-11-06T05:14:08.060Z,27.40
2022-11-06T05:16:36.351Z,26.92
2022-11-06T05:19:04.069Z,27.52
2022-11-06T05:21:50.173Z,27.17
2022-11-06T05:24:17.652Z,29.25
2022-11-06T05:26:45.048Z,26.90
2022-11-06T05:29:12.921Z,27.88
2022-11-06T05:31:41.579Z,26.70
2022-11-06T05:34:10.603Z,26.13
2022-11-06T05:36:40.217Z,29.00
2022-11-06T05:39:08.261Z,29.02
2022-11-06T05:41:41.855Z,33.75
2022-11-06T05:44:10.506Z,31.73
2022-11-06T05:46:53.061Z,35.40
2022-11-06T05:49:22.406Z,35.10
2022-11-06T05:51:50.416Z,33.60
2022-11-06T05:54:18.169Z,33.22
2022-11-06T05:56:44.945Z,33.78
2022-11-06T05:59:12.659Z,31.23
2022-11-06T06:01:40.342Z,29.55
2022-11-06T06:04:07.712Z,29.70
2022-11-06T06:06:35.277Z,31.55
2022-11-06T06:09:02.632Z,30.25
2022-11-06T06:11:29.924Z,26.13
2022-11-06T06:13:58.568Z,26.17
2022-11-06T06:16:25.908Z,27.98
2022-11-06T06:18:55.317Z,24.90
2022-11-06T06:21:22.603Z,27.13
2022-11-06T06:23:51.909Z,23.88
2022-11-06T06:26:18.907Z,25.92
2022-11-06T06:28:49.106Z,23.27
2022-11-06T06:31:17.363Z,25.67
2022-11-06T06:33:44.678Z,22.27
2022-11-06T06:36:12.513Z,25.10
2022-11-06T06:38:40.335Z,23.00
2022-11-06T06:43:50.120Z,22.98
2022-11-06T06:46:18.027Z,23.08
2022-11-06T06:48:47.269Z,24.73
2022-11-06T06:51:14.132Z,25.55
2022-11-06T06:53:43.070Z,24.70
2022-11-06T06:56:10.077Z,22.33
2022-11-06T06:58:37.470Z,23.33
2022-11-06T07:01:10.461Z,25.25
2022-11-06T07:03:38.667Z,23.90
2022-11-06T07:06:07.841Z,25.13
2022-11-06T07:08:37.988Z,24.15
2022-11-06T07:11:09.732Z,23.42
2022-11-06T07:13:39.142Z,26.60
2022-11-06T07:16:08.006Z,27.58
2022-11-06T07:18:37.556Z,25.92
2022-11-06T07:21:06.857Z,25.80
2022-11-06T07:23:35.723Z,25.58
2022-11-06T07:26:07.155Z,26.67
2022-11-06T07:28:34.780Z,22.75
2022-11-06T07:31:04.233Z,22.90
2022-11-06T07:33:33.220Z,18.17
2022-11-06T07:36:07.684Z,17.38
2022-11-06T07:38:35.727Z,13.50
2022-11-06T07:41:16.408Z,14.05
2022-11-06T07:43:43.732Z,13.52
2022-11-06T07:46:14.046Z,11.55
2022-11-06T07:48:40.905Z,11.82
2022-11-06T07:51:12.994Z,11.45
2022-11-06T07:53:39.839Z,12.10
2022-11-06T07:56:09.416Z,10.38
2022-11-06T07:58:36.342Z,11.00
2022-11-06T08:01:03.621Z,11.48
2022-11-06T08:03:30.849Z,11.90
2022-11-06T08:05:59.073Z,10.63
2022-11-06T08:08:26.440Z,12.95
2022-11-06T08:10:53.982Z,12.15
2022-11-06T08:13:21.089Z,12.27
2022-11-06T08:15:47.950Z,11.38
2022-11-06T08:18:17.895Z,13.90
2022-11-06T08:20:46.188Z,15.80
2022-11-06T08:23:13.641Z,16.73
2022-11-06T08:25:41.448Z,11.32
2022-11-06T08:28:09.452Z,16.70
2022-11-06T08:30:36.719Z,12.35
2022-11-06T08:33:07.134Z,8.73
2022-11-06T08:35:41.941Z,9.45
2022-11-06T08:38:16.946Z,7.90
2022-11-06T08:40:50.775Z,8.77
2022-11-06T08:43:20.900Z,7.45
2022-11-06T08:45:48.900Z,7.50
2022-11-06T08:48:19.540Z,6.65
2022-11-06T08:50:46.971Z,7.50
2022-11-06T08:53:15.066Z,5.60
2022-11-06T08:55:42.500Z,5.80
2022-11-06T08:58:11.073Z,6.10
2022-11-06T09:00:40.157Z,7.72
2022-11-06T09:03:11.161Z,7.32
2022-11-06T09:05:43.441Z,8.27
2022-11-06T09:08:11.403Z,7.22
2022-11-06T09:10:40.396Z,7.50
2022-11-06T09:13:08.047Z,7.05
2022-11-06T09:15:35.275Z,7.43
2022-11-06T09:18:02.232Z,7.80
2022-11-06T09:20:29.479Z,8.20
2022-11-06T09:23:02.626Z,7.75
2022-11-06T09:25:30.652Z,8.07
2022-11-06T09:27:59.912Z,6.93
2022-11-06T09:30:31.672Z,7.20
2022-11-06T09:33:02.869Z,8.35
2022-11-06T09:35:33.476Z,8.00
2022-11-06T09:38:05.326Z,8.23
2022-11-06T09:40:51.446Z,8.95
2022-11-06T09:44:06.370Z,8.15
2022-11-06T09:46:42.055Z,7.68
2022-11-06T09:49:37.635Z,7.15
2022-11-06T09:52:19.798Z,6.95
2022-11-06T09:55:18.630Z,6.93
2022-11-06T09:58:04.219Z,7.10
2022-11-06T10:00:32.548Z,6.13
2022-11-06T10:03:35.449Z,7.07
2022-11-06T10:06:04.830Z,5.65
2022-11-06T10:08:34.210Z,6.57
2022-11-06T10:11:08.921Z,5.65
2022-11-06T10:13:56.651Z,6.45
2022-11-06T10:16:43.107Z,6.05
2022-11-06T10:19:39.425Z,6.00
2022-11-06T10:22:30.834Z,5.35
2022-11-06T10:25:22.668Z,6.43
2022-11-06T10:28:13.580Z,7.07
2022-11-06T10:30:57.133Z,6.50
2022-11-06T10:33:49.505Z,5.80
2022-11-06T10:36:22.126Z,6.10
2022-11-06T10:38:50.878Z,5.10
2022-11-06T10:41:30.227Z,4.55
2022-11-06T10:44:08.176Z,3.50
2022-11-06T10:46:48.415Z,3.40
2022-11-06T10:49:33.983Z,4.75
2022-11-06T10:52:38.600Z,4.65
2022-11-06T10:55:35.710Z,5.57
2022-11-06T10:58:17.423Z,5.20
2022-11-06T11:00:47.505Z,5.25
2022-11-06T11:03:28.771Z,4.63
2022-11-06T11:05:56.887Z,3.80
2022-11-06T11:08:48.897Z,4.40
2022-11-06T11:11:15.800Z,5.20
2022-11-06T11:13:45.006Z,3.72
2022-11-06T11:16:26.413Z,4.47
2022-11-06T11:18:55.413Z,3.97
2022-11-06T11:21:26.198Z,4.45
2022-11-06T11:24:11.708Z,4.28
2022-11-06T11:26:49.428Z,5.38
2022-11-06T11:29:40.092Z,3.45
2022-11-06T11:32:07.890Z,3.28
2022-11-06T11:34:49.270Z,3.75
2022-11-06T11:37:27.174Z,4.15
2022-11-06T11:39:57.636Z,2.05
2022-11-06T11:42:30.767Z,3.20
2022-11-06T11:45:10.415Z,2.97
2022-11-06T11:47:55.157Z,2.47
2022-11-06T11:50:30.111Z,2.88
2022-11-06T11:53:20.111Z,3.58
2022-11-06T11:55:50.277Z,3.00
2022-11-06T11:58:28.853Z,3.75
2022-11-06T12:01:04.048Z,2.85
2022-11-06T12:03:41.336Z,2.67
2022-11-06T12:06:14.370Z,2.80
2022-11-06T12:08:50.080Z,3.40
2022-11-06T12:11:22.744Z,2.60
2022-11-06T12:14:29.569Z,2.78
2022-11-06T12:17:21.961Z,2.70
2022-11-06T12:19:56.640Z,4.05
2022-11-06T12:22:37.434Z,2.30
2022-11-06T12:25:28.632Z,2.60
2022-11-06T12:28:03.145Z,2.20
2022-11-06T12:30:37.198Z,2.70
2022-11-06T12:33:17.622Z,2.80
2022-11-06T12:35:50.398Z,3.45
2022-11-06T12:38:42.688Z,2.30
2022-11-06T12:41:23.867Z,2.83
2022-11-06T12:43:56.902Z,2.70
2022-11-06T12:47:26.298Z,2.92
2022-11-06T12:50:08.493Z,2.35
2022-11-06T12:53:13.973Z,2.97
2022-11-06T12:55:57.114Z,2.88
2022-11-06T12:58:46.471Z,3.65
2022-11-06T13:01:33.939Z,3.05
2022-11-06T13:04:36.968Z,2.28
2022-11-06T13:07:34.974Z,2.20
2022-11-06T13:10:28.810Z,1.85
2022-11-06T13:13:21.024Z,2.15
2022-11-06T13:16:32.701Z,1.83
2022-11-06T13:19:05.637Z,2.45
2022-11-06T13:22:00.326Z,2.85
2022-11-06T13:24:44.454Z,2.65
2022-11-06T13:27:36.877Z,2.78
2022-11-06T13:30:16.193Z,2.65
2022-11-06T13:32:53.802Z,2.80
2022-11-06T13:35:22.676Z,2.80
2022-11-06T13:37:54.402Z,3.38
2022-11-06T13:40:44.592Z,2.80
2022-11-06T13:43:48.937Z,2.55
2022-11-06T13:46:21.959Z,3.00
2022-11-06T13:49:10.765Z,2.33
2022-11-06T13:51:54.459Z,2.55
2022-11-06T13:54:50.677Z,3.00
2022-11-06T13:57:42.859Z,2.55
2022-11-06T14:00:22.929Z,2.47
2022-11-06T14:03:31.421Z,2.90
2022-11-06T14:06:23.136Z,2.33
2022-11-06T14:08:57.070Z,2.80
2022-11-06T14:11:33.146Z,2.33
2022-11-06T14:14:05.601Z,3.50
2022-11-06T14:16:43.802Z,2.80
2022-11-06T14:19:23.670Z,3.35
2022-11-06T14:22:16.364Z,3.70
2022-11-06T14:24:46.749Z,3.58
2022-11-06T14:27:39.260Z,3.45
2022-11-06T14:30:50.365Z,3.58
2022-11-06T14:34:00.097Z,2.22
2022-11-06T14:36:40.779Z,2.72
2022-11-06T14:39:10.869Z,3.28
2022-11-06T14:41:40.230Z,3.15
2022-11-06T14:44:29.432Z,3.53
2022-11-06T14:49:51.219Z,3.83
2022-11-06T14:52:19.974Z,4.43
2022-11-06T14:55:00.693Z,2.90
2022-11-06T14:57:47.217Z,2.72
2022-11-06T15:00:46.392Z,3.17
2022-11-06T15:03:24.868Z,4.82
2022-11-06T15:09:59.347Z,3.70
2022-11-06T15:13:08.163Z,4.00
2022-11-06T15:15:35.320Z,3.72
2022-11-06T15:18:04.651Z,3.47
2022-11-06T15:20:33.351Z,3.78
2022-11-06T15:23:11.471Z,4.28
2022-11-06T15:25:46.089Z,4.68
2022-11-06T15:28:14.664Z,3.72
2022-11-06T15:31:04.763Z,4.38
2022-11-06T15:34:02.051Z,3.92
2022-11-06T15:36:34.953Z,6.85
2022-11-06T15:39:32.288Z,5.75
2022-11-06T15:42:00.054Z,6.57
2022-11-06T15:44:27.157Z,7.53
2022-11-06T15:47:00.118Z,6.38
2022-11-06T15:49:28.802Z,7.63
2022-11-06T15:52:00.952Z,8.75
2022-11-06T15:54:45.364Z,8.82
2022-11-06T15:57:23.808Z,11.05
2022-11-06T15:59:51.988Z,12.13
2022-11-06T16:02:23.155Z,12.80
2022-11-06T16:04:52.208Z,12.13
2022-11-06T16:07:20.277Z,14.20
2022-11-06T16:09:48.025Z,15.43
2022-11-06T16:12:18.098Z,17.52
2022-11-06T16:14:45.810Z,17.25
2022-11-06T16:17:18.605Z,18.15
2022-11-06T16:19:53.737Z,15.43
2022-11-06T16:22:29.516Z,17.65
2022-11-06T16:25:05.481Z,18.25
2022-11-06T16:27:43.012Z,16.63
2022-11-06T16:30:25.855Z,16.27
2022-11-06T16:32:53.772Z,16.05
2022-11-06T16:35:37.678Z,16.50
2022-11-06T16:38:45.552Z,18.90
2022-11-06T16:45:00.398Z,18.45
2022-11-06T16:47:29.206Z,16.40
2022-11-06T16:50:44.767Z,18.23
2022-11-06T16:53:30.641Z,17.38
2022-11-06T16:56:02.427Z,16.55
2022-11-06T16:58:33.847Z,15.30
2022-11-06T17:01:06.563Z,16.35
2022-11-06T17:03:57.580Z,15.25
2022-11-06T17:06:31.551Z,14.35
2022-11-06T17:09:09.164Z,14.88
2022-11-06T17:11:39.190Z,13.55
2022-11-06T17:14:18.484Z,15.75
2022-11-06T17:16:50.289Z,15.85
2022-11-06T17:19:48.386Z,16.45
2022-11-06T17:22:15.126Z,16.05
2022-11-06T17:24:47.866Z,15.07
2022-11-06T17:27:16.408Z,15.55
2022-11-06T17:29:44.997Z,15.90
2022-11-06T17:32:13.019Z,15.32
2022-11-06T17:34:40.927Z,17.55
2022-11-06T17:37:12.430Z,16.23
2022-11-06T17:39:39.472Z,15.52
2022-11-06T17:42:06.315Z,15.60
2022-11-06T17:44:34.139Z,15.23
2022-11-06T17:47:02.309Z,16.08
2022-11-06T17:49:31.545Z,14.50
2022-11-06T17:52:06.067Z,15.20
2022-11-06T17:54:36.687Z,17.38
2022-11-06T17:57:07.347Z,16.70
2022-11-06T17:59:37.611Z,15.65
2022-11-06T18:02:21.597Z,18.52
2022-11-06T18:05:00.315Z,17.80
2022-11-06T18:07:27.870Z,17.30
2022-11-06T18:09:54.811Z,15.73
2022-11-06T18:12:32.463Z,16.17
2022-11-06T18:15:02.837Z,18.23
2022-11-06T18:17:33.160Z,17.23
2022-11-06T18:20:00.468Z,15.75
2022-11-06T18:22:30.541Z,18.10
2022-11-06T18:25:00.936Z,16.02
2022-11-06T18:27:28.883Z,16.10
2022-11-06T18:29:56.144Z,15.50
2022-11-06T18:32:23.770Z,14.77
2022-11-06T18:34:51.153Z,16.10
2022-11-06T18:37:23.609Z,17.30
2022-11-06T18:39:54.196Z,18.75
2022-11-06T18:42:30.077Z,17.25
2022-11-06T18:44:58.402Z,16.85
2022-11-06T18:47:26.893Z,18.73
2022-11-06T18:49:54.067Z,16.65
2022-11-06T18:52:51.663Z,17.10
2022-11-06T18:55:14.888Z,18.77
2022-11-06T18:57:55.616Z,18.85
2022-11-06T19:00:26.609Z,18.67
2022-11-06T19:02:55.725Z,16.30
2022-11-06T19:05:23.923Z,18.88
2022-11-06T19:08:00.000Z,17.95
2022-11-06T19:10:31.302Z,18.20
2022-11-06T19:13:07.348Z,18.92
2022-11-06T19:15:37.613Z,18.17
2022-11-06T19:18:04.676Z,18.77
2022-11-06T19:20:37.405Z,19.10
2022-11-06T19:23:07.013Z,18.63
2022-11-06T19:25:37.177Z,19.55
2022-11-06T19:28:05.983Z,18.98
2022-11-06T19:30:35.419Z,21.20
2022-11-06T19:33:07.903Z,20.85
2022-11-06T19:35:37.539Z,18.63
2022-11-06T19:38:06.810Z,21.23
2022-11-06T19:40:33.898Z,20.98
2022-11-06T19:43:07.682Z,18.25
2022-11-06T19:45:38.627Z,20.88
2022-11-06T19:48:08.389Z,17.73
2022-11-06T19:51:04.119Z,20.27
2022-11-06T19:53:26.271Z,19.92
2022-11-06T19:55:59.900Z,19.88
2022-11-06T19:58:42.934Z,21.23
2022-11-06T20:01:13.352Z,20.75
2022-11-06T20:03:41.537Z,19.15
2022-11-06T20:06:09.431Z,20.48
2022-11-06T20:08:42.381Z,21.08
2022-11-06T20:11:15.802Z,20.58
2022-11-06T20:13:56.620Z,20.10
2022-11-06T20:16:26.163Z,20.13
2022-11-06T20:18:58.615Z,22.25
2022-11-06T20:21:32.145Z,23.67
2022-11-06T20:24:02.449Z,22.80
2022-11-06T20:26:32.377Z,23.80
2022-11-06T20:29:00.151Z,25.65
2022-11-06T20:31:31.228Z,25.13
2022-11-06T20:34:04.385Z,27.10
2022-11-06T20:36:31.825Z,25.73
2022-11-06T20:39:01.871Z,26.83
2022-11-06T20:41:30.236Z,29.38
2022-11-06T20:44:00.400Z,27.52
2022-11-06T20:46:27.577Z,27.95
2022-11-06T20:48:55.564Z,30.10
2022-11-06T20:51:25.688Z,27.02
2022-11-06T20:53:54.251Z,27.75
2022-11-06T20:56:27.829Z,28.25
2022-11-06T20:58:56.467Z,29.65
2022-11-06T21:01:29.561Z,30.98
2022-11-06T21:03:59.428Z,31.73
2022-11-06T21:06:28.136Z,30.77
2022-11-06T21:09:00.602Z,28.48
2022-11-06T21:11:28.553Z,32.22
2022-11-06T21:13:57.712Z,32.20
2022-11-06T21:16:31.205Z,30.92
2022-11-06T21:19:02.866Z,32.47
2022-11-06T21:21:37.665Z,31.55
2022-11-06T21:24:13.274Z,31.27
2022-11-06T21:26:41.988Z,32.15
2022-11-06T21:29:13.095Z,34.70
2022-11-06T21:31:47.594Z,33.00
2022-11-06T21:34:17.353Z,32.38
2022-11-06T21:36:46.605Z,33.80
2022-11-06T21:39:23.395Z,32.63
2022-11-06T21:41:57.410Z,31.85
2022-11-06T21:44:25.854Z,33.40
2022-11-06T21:46:53.171Z,35.08
2022-11-06T21:49:20.137Z,33.80
2022-11-06T21:51:52.811Z,32.90
2022-11-06T21:54:39.733Z,32.55
2022-11-06T21:57:09.021Z,37.70
2022-11-06T21:59:41.467Z,36.22
2022-11-06T22:02:11.941Z,37.00
2022-11-06T22:04:43.148Z,37.63
2022-11-06T22:07:10.598Z,36.30
2022-11-06T22:09:38.427Z,38.75
2022-11-06T22:12:06.567Z,39.20
2022-11-06T22:14:33.643Z,40.05
2022-11-06T22:17:02.165Z,40.78
2022-11-06T22:19:47.967Z,42.45
2022-11-06T22:22:16.060Z,40.58
2022-11-06T22:24:43.509Z,39.42
2022-11-06T22:27:10.596Z,44.53
2022-11-06T22:29:38.801Z,42.42
2022-11-06T22:32:06.507Z,44.72
2022-11-06T22:34:35.008Z,38.60
2022-11-06T22:37:03.410Z,40.10
2022-11-06T22:39:34.895Z,39.38
2022-11-06T22:42:02.368Z,39.58
2022-11-06T22:44:36.258Z,39.50
2022-11-06T22:47:05.976Z,44.33
2022-11-06T22:49:33.972Z,42.20
2022-11-06T22:52:01.503Z,42.33
2022-11-06T22:54:29.470Z,39.33
2022-11-06T22:56:56.895Z,38.72
2022-11-06T22:59:24.046Z,38.72
2022-11-06T23:01:54.460Z,42.50
2022-11-06T23:04:21.716Z,40.38
2022-11-06T23:06:48.928Z,41.28
2022-11-06T23:09:17.657Z,38.72
2022-11-06T23:11:50.125Z,42.95
2022-11-06T23:14:17.422Z,39.92
2022-11-06T23:17:01.309Z,36.90
2022-11-06T23:19:33.678Z,40.53
2022-11-06T23:22:19.011Z,38.60
2022-11-06T23:24:48.516Z,38.72
2022-11-06T23:27:15.448Z,36.83
2022-11-06T23:29:46.074Z,37.75
2022-11-06T23:32:14.501Z,34.13
2022-11-06T23:34:42.588Z,33.80
2022-11-06T23:37:10.369Z,34.95
2022-11-06T23:39:37.444Z,39.42
2022-11-06T23:42:08.341Z,37.83
2022-11-06T23:44:53.764Z,39.03
2022-11-06T23:47:24.811Z,40.85
2022-11-06T23:49:52.328Z,39.35
2022-11-06T23:52:19.997Z,40.78
2022-11-06T23:54:47.425Z,38.25
2022-11-06T23:57:14.640Z,38.20
2022-11-06T23:59:41.958Z,39.05
